Airfield :
LOGIN :

Register | Disclaimer

   EN    FR    IT 

 










Legend :    VFR   Marginal VFR   IFR   Intensive IFR   Very Intensive IFR
Visi :
Ceiling :
>= 8 km
>= 3000ft
5 to 8 km
1000 to 3000 ft
1500m to 5 km
500 to 1000 ft
800 to 1500m
200 to 500 ft
< 800m
< 200 ft
Symbols :   Thunderstorms  Fog  Heavy snow  Heavy precipitations  Wind > 20 kt
SIGMETs :     Misc.  Thunderstorms  Icing  Turbulence  Mountain Waves  Volcanic Ashes







- Airport Elevation : 461 ft
- IATA code : WIE


ETOU - Wiesbaden Army

CURRENT METAR :
  • 160656Z AUTO 22008KT 9999 OVC028 05/M01 A2996 RMK AO2 SLPNO T00481014 $

EXPIRED METARs :
  • 160556Z AUTO 23010KT 9999 OVC026 05/M01 A2998 RMK AO2 SLPNO 60000 T00491011 10052 20041 57014 $
  • 160506Z AUTO 24008KT 9999 OVC028 05/M01 A2999 RMK AO2 CIG 027 RWY07 SLP162 $
  • 160456Z AUTO 24009KT 9999 OVC030 05/M01 A2999 RMK AO2 SLP162 T00511007 $

TAF TAF ETOU
Valid from the 16 at 04:00 until the 17 at 10:00 UTC


160400Z 1604/1710 24009KT 9999 SCT015 BKN025 QNH2995INS
BECMG 1608/1609 23009KT 9999 SCT010 BKN020 QNH2973INS
BECMG 1621/1622 24012G18KT 9999 BKN020 620809 QNH2968INS
TEMPO 1622/1704 24015G25KT BKN015
BECMG 1703/1704 24012G18KT 9999 BKN010 620809 QNH2968INS
BECMG 1707/1708 24009KT 9999 SCT010 SCT015 520004 QNH2965INS TX05/1615Z TN02/1622Z
No reported NOTAMs for that airfield.



MET'MAP, your aeronautical weather chart ! - Copyright ORBIFLY December 2007 - Disclaimer

ORBIFLY MET'MAP TEAM :

Programming & Development : Alexandra Zaïnal
Concept & Development : Baudouin d'Aumeries
Co-Development & Prog : Marc-Olivier Méhu
Technical & hardware support : Manuel Goepfert

Contact : metmap@orbifly.com




SOURCES & CREDITS :

   NOAA